Time,TemperatureF,DewpointF,PressureIn,WindDirection,WindDirectionDegrees,WindSpeedMPH,WindSpeedGustMPH,Humidity,HourlyPrecipIn,Conditions,Clouds,dailyrainin,SoftwareType,DateUTC
2013-04-07 00:02:00,53.0,28.0,-100.00,NE,45,4.0,7.0,37,-99.99,,,-99.99,,2013-04-07 06:02:00,
2013-04-07 00:12:00,52.0,28.0,-100.00,NE,50,4.0,7.0,38,-99.99,,,-99.99,,2013-04-07 06:12:00,
2013-04-07 00:22:00,52.0,28.0,-100.00,ENE,60,6.0,7.0,38,-99.99,,,-99.99,,2013-04-07 06:22:00,
2013-04-07 00:32:00,50.0,28.0,-100.00,ENE,65,5.0,7.0,42,-99.99,,,-99.99,,2013-04-07 06:32:00,
2013-04-07 00:42:00,50.0,28.0,-100.00,ENE,70,4.0,5.0,42,-99.99,,,-99.99,,2013-04-07 06:42:00,
2013-04-07 00:52:00,48.0,28.0,-100.00,ENE,75,4.0,5.0,45,-99.99,,,-99.99,,2013-04-07 06:52:00,
2013-04-07 01:02:00,48.0,28.0,-100.00,ENE,60,4.0,6.0,45,-99.99,,,-99.99,,2013-04-07 07:02:00,
2013-04-07 01:12:00,48.0,27.0,-100.00,NE,40,2.0,5.0,45,-99.99,,,-99.99,,2013-04-07 07:12:00,
2013-04-07 01:22:00,46.0,27.0,-100.00,ENE,60,3.0,4.0,46,-99.99,,,-99.99,,2013-04-07 07:22:00,
2013-04-07 01:32:00,46.0,27.0,-100.00,ENE,75,2.0,4.0,47,-99.99,,,-99.99,,2013-04-07 07:32:00,
2013-04-07 01:42:00,45.0,27.0,-100.00,NNE,30,2.0,5.0,48,-99.99,,,-99.99,,2013-04-07 07:42:00,
2013-04-07 01:52:00,45.0,27.0,-100.00,East,85,5.0,7.0,49,-99.99,,,-99.99,,2013-04-07 07:52:00,
2013-04-07 02:02:00,44.0,27.0,-100.00,East,85,7.0,10.0,52,-99.99,,,-99.99,,2013-04-07 08:02:00,
2013-04-07 02:12:00,44.0,28.0,-100.00,ENE,75,7.0,11.0,52,-99.99,,,-99.99,,2013-04-07 08:12:00,
2013-04-07 02:22:00,45.0,29.0,-100.00,East,85,6.0,11.0,52,-99.99,,,-99.99,,2013-04-07 08:22:00,
2013-04-07 02:32:00,45.0,29.0,-100.00,East,90,7.0,9.0,53,-99.99,,,-99.99,,2013-04-07 08:32:00,
2013-04-07 02:42:00,46.0,30.0,-100.00,East,90,10.0,14.0,53,-99.99,,,-99.99,,2013-04-07 08:42:00,
2013-04-07 02:52:00,47.0,31.0,-100.00,ESE,110,11.0,16.0,53,-99.99,,,-99.99,,2013-04-07 08:52:00,
2013-04-07 03:02:00,47.0,32.0,-100.00,SE,125,9.0,12.0,54,-99.99,,,-99.99,,2013-04-07 09:02:00,
2013-04-07 03:12:00,48.0,32.0,-100.00,ESE,120,7.0,12.0,54,-99.99,,,-99.99,,2013-04-07 09:12:00,
2013-04-07 03:22:00,48.0,32.0,-100.00,ESE,105,7.0,12.0,54,-99.99,,,-99.99,,2013-04-07 09:22:00,
2013-04-07 03:33:00,47.0,32.0,-100.00,East,95,4.0,9.0,54,-99.99,,,-99.99,,2013-04-07 09:33:00,
2013-04-07 03:43:00,47.0,32.0,-100.00,South,170,3.0,7.0,55,-99.99,,,-99.99,,2013-04-07 09:43:00,
2013-04-07 03:53:00,47.0,33.0,-100.00,South,180,11.0,17.0,56,-99.99,,,-99.99,,2013-04-07 09:53:00,
2013-04-07 04:03:00,48.0,33.0,-100.00,South,175,11.0,18.0,56,-99.99,,,-99.99,,2013-04-07 10:03:00,
2013-04-07 04:13:00,47.0,34.0,-100.00,SSW,200,6.0,12.0,62,-99.99,,,-99.99,,2013-04-07 10:13:00,
2013-04-07 04:22:00,46.0,35.0,-100.00,West,260,4.0,6.0,66,-99.99,,,-99.99,,2013-04-07 10:22:00,
2013-04-07 04:33:00,45.0,37.0,-100.00,NW,310,3.0,5.0,71,-99.99,,,-99.99,,2013-04-07 10:33:00,
2013-04-07 04:42:00,45.0,37.0,-100.00,NW,310,0.0,4.0,74,-99.99,,,-99.99,,2013-04-07 10:42:00,
2013-04-07 04:52:00,45.0,37.0,-100.00,WNW,295,0.0,0.0,74,-99.99,,,-99.99,,2013-04-07 10:52:00,
2013-04-07 05:02:00,45.0,38.0,-100.00,SW,235,3.0,4.0,76,-99.99,,,-99.99,,2013-04-07 11:02:00,
2013-04-07 05:12:00,45.0,38.0,-100.00,SW,225,13.0,17.0,76,-99.99,,,-99.99,,2013-04-07 11:12:00,
2013-04-07 05:22:00,44.0,37.0,-100.00,WSW,245,11.0,15.0,77,-99.99,,,-99.99,,2013-04-07 11:22:00,
2013-04-07 05:32:00,43.0,37.0,-100.00,WSW,240,9.0,14.0,79,-99.99,,,-99.99,,2013-04-07 11:32:00,
2013-04-07 05:42:00,43.0,37.0,-100.00,SW,235,11.0,16.0,80,-99.99,,,-99.99,,2013-04-07 11:42:00,
2013-04-07 05:52:00,43.0,38.0,-100.00,WSW,240,11.0,16.0,81,-99.99,,,-99.99,,2013-04-07 11:52:00,
2013-04-07 06:02:00,42.0,37.0,-100.00,WSW,245,10.0,14.0,81,-99.99,,,-99.99,,2013-04-07 12:02:00,
2013-04-07 06:12:00,42.0,37.0,-100.00,WSW,245,10.0,14.0,81,-99.99,,,-99.99,,2013-04-07 12:12:00,
2013-04-07 06:22:00,41.0,36.0,-100.00,West,265,7.0,10.0,81,-99.99,,,-99.99,,2013-04-07 12:22:00,
2013-04-07 06:33:00,40.0,32.0,-100.00,West,265,7.0,8.0,72,-99.99,,,-99.99,,2013-04-07 12:33:00,
2013-04-07 06:42:00,40.0,32.0,-100.00,West,265,7.0,8.0,72,-99.99,,,-99.99,,2013-04-07 12:42:00,
2013-04-07 06:53:00,39.0,35.0,-100.00,West,260,6.0,7.0,83,-99.99,,,-99.99,,2013-04-07 12:53:00,
2013-04-07 07:03:00,39.0,35.0,-100.00,SW,220,4.0,6.0,84,-99.99,,,-99.99,,2013-04-07 13:03:00,
2013-04-07 07:13:00,40.0,35.0,-100.00,SSW,205,4.0,6.0,84,-99.99,,,-99.99,,2013-04-07 13:13:00,
2013-04-07 07:22:00,40.0,36.0,-100.00,South,180,6.0,6.0,84,-99.99,,,-99.99,,2013-04-07 13:22:00,
2013-04-07 07:32:00,42.0,37.0,-100.00,SSE,160,8.0,9.0,84,-99.99,,,-99.99,,2013-04-07 13:32:00,
2013-04-07 07:42:00,42.0,37.0,-100.00,South,180,7.0,10.0,83,-99.99,,,-99.99,,2013-04-07 13:42:00,
2013-04-07 07:52:00,44.0,38.0,-100.00,South,175,7.0,9.0,81,-99.99,,,-99.99,,2013-04-07 13:52:00,
2013-04-07 08:02:00,46.0,39.0,-100.00,South,190,5.0,7.0,78,-99.99,,,-99.99,,2013-04-07 14:02:00,
2013-04-07 08:12:00,47.0,39.0,-100.00,SSW,205,6.0,6.0,72,-99.99,,,-99.99,,2013-04-07 14:12:00,
2013-04-07 08:23:00,48.0,38.0,-100.00,South,170,6.0,7.0,67,-99.99,,,-99.99,,2013-04-07 14:23:00,
2013-04-07 08:32:00,50.0,39.0,-100.00,SSW,195,4.0,6.0,65,-99.99,,,-99.99,,2013-04-07 14:32:00,
2013-04-07 08:43:00,51.0,38.0,-100.00,South,190,4.0,6.0,59,-99.99,,,-99.99,,2013-04-07 14:43:00,
2013-04-07 08:53:00,52.0,34.0,-100.00,SW,215,4.0,8.0,50,-99.99,,,-99.99,,2013-04-07 14:53:00,
2013-04-07 09:02:00,53.0,32.0,-100.00,SW,230,6.0,9.0,44,-99.99,,,-99.99,,2013-04-07 15:02:00,
2013-04-07 09:12:00,53.0,31.0,-100.00,SW,225,6.0,9.0,43,-99.99,,,-99.99,,2013-04-07 15:12:00,
2013-04-07 09:22:00,54.0,31.0,-100.00,SSW,200,7.0,10.0,40,-99.99,,,-99.99,,2013-04-07 15:22:00,
2013-04-07 09:33:00,54.0,32.0,-100.00,SSW,205,6.0,9.0,43,-99.99,,,-99.99,,2013-04-07 15:33:00,
2013-04-07 09:43:00,54.0,31.0,-100.00,SW,215,5.0,8.0,40,-99.99,,,-99.99,,2013-04-07 15:43:00,
2013-04-07 09:53:00,54.0,31.0,-100.00,SW,230,6.0,7.0,39,-99.99,,,-99.99,,2013-04-07 15:53:00,
2013-04-07 10:03:00,55.0,30.0,-100.00,SW,225,6.0,9.0,38,-99.99,,,-99.99,,2013-04-07 16:03:00,
2013-04-07 10:13:00,56.0,31.0,-100.00,SSW,210,4.0,10.0,37,-99.99,,,-99.99,,2013-04-07 16:13:00,
2013-04-07 10:24:00,57.0,31.0,-100.00,SW,235,3.0,7.0,36,-99.99,,,-99.99,,2013-04-07 16:24:00,
2013-04-07 10:33:00,58.0,31.0,-100.00,SSE,155,7.0,9.0,35,-99.99,,,-99.99,,2013-04-07 16:33:00,
2013-04-07 10:42:00,58.0,30.0,-100.00,South,180,4.0,11.0,34,-99.99,,,-99.99,,2013-04-07 16:42:00,
2013-04-07 10:53:00,59.0,30.0,-100.00,SSW,195,4.0,9.0,33,-99.99,,,-99.99,,2013-04-07 16:53:00,
2013-04-07 11:13:00,59.0,30.0,-100.00,ESE,105,5.0,7.0,32,-99.99,,,-99.99,,2013-04-07 17:13:00,
2013-04-07 11:23:00,61.0,30.0,-100.00,SE,140,4.0,11.0,31,-99.99,,,-99.99,,2013-04-07 17:23:00,
2013-04-07 11:33:00,60.0,29.0,-100.00,ESE,110,8.0,12.0,30,-99.99,,,-99.99,,2013-04-07 17:33:00,
2013-04-07 11:42:00,60.0,28.0,-100.00,ESE,110,4.0,12.0,29,-99.99,,,-99.99,,2013-04-07 17:42:00,
2013-04-07 11:52:00,60.0,26.0,-100.00,SE,140,8.0,14.0,27,-99.99,,,-99.99,,2013-04-07 17:52:00,
2013-04-07 12:02:00,60.0,26.0,-100.00,ESE,120,6.0,14.0,27,-99.99,,,-99.99,,2013-04-07 18:02:00,
2013-04-07 12:13:00,62.0,26.0,-100.00,WSW,245,5.0,9.0,25,-99.99,,,-99.99,,2013-04-07 18:13:00,
2013-04-07 12:22:00,62.0,24.0,-100.00,East,90,5.0,7.0,23,-99.99,,,-99.99,,2013-04-07 18:22:00,
2013-04-07 12:32:00,63.0,25.0,-100.00,East,90,3.0,8.0,22,-99.99,,,-99.99,,2013-04-07 18:32:00,
2013-04-07 12:42:00,63.0,24.0,-100.00,SSE,160,2.0,7.0,22,-99.99,,,-99.99,,2013-04-07 18:42:00,
2013-04-07 12:52:00,63.0,23.0,-100.00,WNW,300,2.0,5.0,21,-99.99,,,-99.99,,2013-04-07 18:52:00,
2013-04-07 13:02:00,64.0,25.0,-100.00,South,190,4.0,12.0,22,-99.99,,,-99.99,,2013-04-07 19:02:00,
2013-04-07 13:12:00,66.0,25.0,-100.00,SE,135,4.0,7.0,21,-99.99,,,-99.99,,2013-04-07 19:12:00,
2013-04-07 13:22:00,64.0,24.0,-100.00,SE,135,10.0,12.0,21,-99.99,,,-99.99,,2013-04-07 19:22:00,
2013-04-07 13:32:00,64.0,24.0,-100.00,ESE,105,2.0,12.0,21,-99.99,,,-99.99,,2013-04-07 19:32:00,
2013-04-07 13:42:00,64.0,23.0,-100.00,SSW,200,4.0,10.0,20,-99.99,,,-99.99,,2013-04-07 19:42:00,
2013-04-07 13:53:00,65.0,24.0,-100.00,ENE,70,6.0,7.0,20,-99.99,,,-99.99,,2013-04-07 19:53:00,
2013-04-07 14:02:00,67.0,25.0,-100.00,SW,230,2.0,6.0,19,-99.99,,,-99.99,,2013-04-07 20:02:00,
2013-04-07 14:13:00,65.0,24.0,-100.00,South,185,6.0,10.0,20,-99.99,,,-99.99,,2013-04-07 20:13:00,
2013-04-07 14:22:00,65.0,23.0,-100.00,SW,215,6.0,14.0,20,-99.99,,,-99.99,,2013-04-07 20:22:00,
2013-04-07 14:32:00,65.0,23.0,-100.00,West,275,5.0,9.0,19,-99.99,,,-99.99,,2013-04-07 20:32:00,
2013-04-07 14:43:00,66.0,22.0,-100.00,SW,215,7.0,11.0,19,-99.99,,,-99.99,,2013-04-07 20:43:00,
2013-04-07 14:52:00,65.0,22.0,-100.00,SW,235,4.0,9.0,19,-99.99,,,-99.99,,2013-04-07 20:52:00,
2013-04-07 15:03:00,67.0,22.0,-100.00,South,190,4.0,7.0,18,-99.99,,,-99.99,,2013-04-07 21:03:00,
2013-04-07 15:13:00,69.0,23.0,-100.00,South,175,5.0,12.0,17,-99.99,,,-99.99,,2013-04-07 21:13:00,
2013-04-07 15:22:00,68.0,22.0,-100.00,SW,230,4.0,11.0,17,-99.99,,,-99.99,,2013-04-07 21:22:00,
2013-04-07 15:33:00,67.0,22.0,-100.00,SSW,195,6.0,9.0,17,-99.99,,,-99.99,,2013-04-07 21:33:00,
2013-04-07 15:43:00,66.0,21.0,-100.00,ENE,60,1.0,13.0,17,-99.99,,,-99.99,,2013-04-07 21:43:00,
2013-04-07 15:53:00,67.0,22.0,-100.00,SSW,195,8.0,14.0,17,-99.99,,,-99.99,,2013-04-07 21:53:00,
2013-04-07 16:03:00,65.0,22.0,-100.00,West,260,3.0,9.0,18,-99.99,,,-99.99,,2013-04-07 22:03:00,
2013-04-07 16:13:00,65.0,21.0,-100.00,WSW,255,7.0,12.0,18,-99.99,,,-99.99,,2013-04-07 22:13:00,
2013-04-07 16:23:00,68.0,22.0,-100.00,NNE,25,1.0,10.0,17,-99.99,,,-99.99,,2013-04-07 22:23:00,
2013-04-07 16:33:00,70.0,22.0,-100.00,South,190,4.0,7.0,16,-99.99,,,-99.99,,2013-04-07 22:33:00,
2013-04-07 16:43:00,67.0,20.0,-100.00,SSE,160,2.0,5.0,16,-99.99,,,-99.99,,2013-04-07 22:43:00,
2013-04-07 16:52:00,68.0,20.0,-100.00,SSW,210,6.0,9.0,16,-99.99,,,-99.99,,2013-04-07 22:52:00,
2013-04-07 17:03:00,65.0,19.0,-100.00,WSW,250,4.0,7.0,17,-99.99,,,-99.99,,2013-04-07 23:03:00,
2013-04-07 17:12:00,66.0,19.0,-100.00,SE,130,0.0,7.0,16,-99.99,,,-99.99,,2013-04-07 23:12:00,
2013-04-07 17:22:00,65.0,19.0,-100.00,ESE,115,2.0,4.0,16,-99.99,,,-99.99,,2013-04-07 23:22:00,
2013-04-07 17:32:00,65.0,19.0,-100.00,SE,140,4.0,7.0,16,-99.99,,,-99.99,,2013-04-07 23:32:00,
2013-04-07 17:42:00,65.0,19.0,-100.00,South,190,1.0,7.0,17,-99.99,,,-99.99,,2013-04-07 23:42:00,
2013-04-07 17:52:00,65.0,19.0,-100.00,SW,225,2.0,4.0,16,-99.99,,,-99.99,,2013-04-07 23:52:00,
2013-04-07 18:02:00,64.0,19.0,-100.00,SW,235,2.0,4.0,16,-99.99,,,-99.99,,2013-04-08 00:02:00,
2013-04-07 18:12:00,65.0,19.0,-100.00,SW,235,3.0,4.0,16,-99.99,,,-99.99,,2013-04-08 00:12:00,
2013-04-07 18:22:00,64.0,19.0,-100.00,South,190,1.0,3.0,16,-99.99,,,-99.99,,2013-04-08 00:22:00,
2013-04-07 18:32:00,64.0,18.0,-100.00,West,260,1.0,2.0,17,-99.99,,,-99.99,,2013-04-08 00:32:00,
2013-04-07 18:42:00,63.0,19.0,-100.00,NNW,335,1.0,2.0,17,-99.99,,,-99.99,,2013-04-08 00:42:00,
2013-04-07 18:52:00,63.0,19.0,-100.00,NNE,20,1.0,2.0,18,-99.99,,,-99.99,,2013-04-08 00:52:00,
2013-04-07 19:02:00,62.0,19.0,-100.00,West,280,2.0,2.0,18,-99.99,,,-99.99,,2013-04-08 01:02:00,
2013-04-07 19:12:00,62.0,19.0,-100.00,WNW,300,3.0,4.0,18,-99.99,,,-99.99,,2013-04-08 01:12:00,
2013-04-07 19:22:00,61.0,19.0,-100.00,WNW,285,2.0,3.0,19,-99.99,,,-99.99,,2013-04-08 01:22:00,
2013-04-07 19:33:00,60.0,19.0,-100.00,WSW,250,4.0,4.0,19,-99.99,,,-99.99,,2013-04-08 01:33:00,
2013-04-07 19:43:00,58.0,20.0,-100.00,SW,215,4.0,4.0,22,-99.99,,,-99.99,,2013-04-08 01:43:00,
2013-04-07 19:53:00,56.0,22.0,-100.00,SW,215,6.0,7.0,25,-99.99,,,-99.99,,2013-04-08 01:53:00,
2013-04-07 20:02:00,56.0,22.0,-100.00,WSW,240,11.0,12.0,26,-99.99,,,-99.99,,2013-04-08 02:02:00,
2013-04-07 20:12:00,56.0,22.0,-100.00,WSW,240,9.0,11.0,26,-99.99,,,-99.99,,2013-04-08 02:12:00,
2013-04-07 20:22:00,56.0,22.0,-100.00,SW,235,12.0,14.0,26,-99.99,,,-99.99,,2013-04-08 02:22:00,
2013-04-07 20:33:00,55.0,22.0,-100.00,SW,235,9.0,12.0,26,-99.99,,,-99.99,,2013-04-08 02:33:00,
2013-04-07 20:45:00,54.0,21.0,-100.00,West,265,9.0,9.0,27,-99.99,,,-99.99,,2013-04-08 02:45:00,
2013-04-07 20:52:00,52.0,22.0,-100.00,West,265,11.0,11.0,31,-99.99,,,-99.99,,2013-04-08 02:52:00,
2013-04-07 21:06:00,52.0,23.0,-100.00,West,265,8.0,11.0,32,-99.99,,,-99.99,,2013-04-08 03:06:00,
2013-04-07 21:14:00,52.0,23.0,-100.00,West,265,4.0,7.0,32,-99.99,,,-99.99,,2013-04-08 03:14:00,
2013-04-07 21:23:00,53.0,24.0,-100.00,North,5,6.0,7.0,31,-99.99,,,-99.99,,2013-04-08 03:23:00,
2013-04-07 21:33:00,54.0,24.0,-100.00,North,0,6.0,8.0,31,-99.99,,,-99.99,,2013-04-08 03:33:00,
2013-04-07 21:53:00,54.0,24.0,-100.00,NNE,30,4.0,6.0,30,-99.99,,,-99.99,,2013-04-08 03:53:00,
2013-04-07 22:03:00,54.0,24.0,-100.00,North,5,3.0,4.0,31,-99.99,,,-99.99,,2013-04-08 04:03:00,
2013-04-07 22:12:00,52.0,24.0,-100.00,NW,325,0.0,3.0,32,-99.99,,,-99.99,,2013-04-08 04:12:00,
2013-04-07 22:23:00,53.0,24.0,-100.00,North,5,0.0,1.0,32,-99.99,,,-99.99,,2013-04-08 04:23:00,
2013-04-07 22:33:00,51.0,24.0,-100.00,NW,305,1.0,2.0,33,-99.99,,,-99.99,,2013-04-08 04:33:00,
2013-04-07 22:43:00,52.0,24.0,-100.00,ESE,115,1.0,2.0,33,-99.99,,,-99.99,,2013-04-08 04:43:00,
2013-04-07 22:52:00,51.0,25.0,-100.00,NE,45,2.0,3.0,35,-99.99,,,-99.99,,2013-04-08 04:52:00,
2013-04-07 23:02:00,50.0,26.0,-100.00,SE,145,3.0,4.0,38,-99.99,,,-99.99,,2013-04-08 05:02:00,
2013-04-07 23:12:00,49.0,26.0,-100.00,SW,235,2.0,3.0,39,-99.99,,,-99.99,,2013-04-08 05:12:00,
2013-04-07 23:22:00,49.0,26.0,-100.00,SW,235,2.0,3.0,39,-99.99,,,-99.99,,2013-04-08 05:22:00,
2013-04-07 23:32:00,48.0,26.0,-100.00,WSW,255,7.0,7.0,41,-99.99,,,-99.99,,2013-04-08 05:32:00,
2013-04-07 23:42:00,46.0,26.0,-100.00,WNW,285,2.0,6.0,46,-99.99,,,-99.99,,2013-04-08 05:42:00,
2013-04-07 23:52:00,45.0,27.0,-100.00,West,260,1.0,2.0,47,-99.99,,,-99.99,,2013-04-08 05:52:00,